sensor_id;sensor_type;location;lat;lon;timestamp;pressure;altitude;pressure_sealevel;temperature;humidity
60918;BME280;46792;38.854;-9.384;2022-12-07T00:01:35;99265.00;;;10.98;100.00
60918;BME280;46792;38.854;-9.384;2022-12-07T00:03:37;99255.84;;;10.93;100.00
60918;BME280;46792;38.854;-9.384;2022-12-07T00:05:38;99255.28;;;10.86;100.00
60918;BME280;46792;38.854;-9.384;2022-12-07T00:07:57;99256.13;;;10.82;100.00
60918;BME280;46792;38.854;-9.384;2022-12-07T00:10:15;99251.00;;;10.75;100.00
60918;BME280;46792;38.854;-9.384;2022-12-07T00:12:16;99251.81;;;10.70;100.00
60918;BME280;46792;38.854;-9.384;2022-12-07T00:14:17;99245.34;;;10.66;100.00
60918;BME280;46792;38.854;-9.384;2022-12-07T00:16:20;99239.16;;;10.60;100.00
60918;BME280;46792;38.854;-9.384;2022-12-07T00:18:21;99247.78;;;10.62;100.00
60918;BME280;46792;38.854;-9.384;2022-12-07T00:20:21;99233.47;;;10.62;100.00
60918;BME280;46792;38.854;-9.384;2022-12-07T00:22:25;99227.53;;;10.60;100.00
60918;BME280;46792;38.854;-9.384;2022-12-07T00:24:28;99223.78;;;10.56;100.00
60918;BME280;46792;38.854;-9.384;2022-12-07T00:26:34;99227.25;;;10.56;100.00
60918;BME280;46792;38.854;-9.384;2022-12-07T00:28:35;99231.56;;;10.52;100.00
60918;BME280;46792;38.854;-9.384;2022-12-07T00:30:36;99231.56;;;10.52;100.00
60918;BME280;46792;38.854;-9.384;2022-12-07T00:32:37;99227.53;;;10.49;100.00
60918;BME280;46792;38.854;-9.384;2022-12-07T00:34:37;99236.72;;;10.48;100.00
60918;BME280;46792;38.854;-9.384;2022-12-07T00:36:53;99226.72;;;10.54;100.00
60918;BME280;46792;38.854;-9.384;2022-12-07T00:38:54;99224.84;;;10.55;100.00
60918;BME280;46792;38.854;-9.384;2022-12-07T00:41:24;99219.16;;;10.56;100.00
60918;BME280;46792;38.854;-9.384;2022-12-07T00:43:26;99225.91;;;10.48;100.00
60918;BME280;46792;38.854;-9.384;2022-12-07T00:45:26;99217.56;;;10.45;100.00
60918;BME280;46792;38.854;-9.384;2022-12-07T00:47:27;99210.84;;;10.42;100.00
60918;BME280;46792;38.854;-9.384;2022-12-07T00:49:28;99214.88;;;10.45;100.00
60918;BME280;46792;38.854;-9.384;2022-12-07T00:51:28;99214.03;;;10.44;100.00
60918;BME280;46792;38.854;-9.384;2022-12-07T00:53:29;99205.44;;;10.42;100.00
60918;BME280;46792;38.854;-9.384;2022-12-07T00:55:34;99206.50;;;10.46;100.00
60918;BME280;46792;38.854;-9.384;2022-12-07T00:57:34;99208.41;;;10.46;100.00
60918;BME280;46792;38.854;-9.384;2022-12-07T00:59:35;99206.50;;;10.46;100.00
60918;BME280;46792;38.854;-9.384;2022-12-07T01:01:36;99202.47;;;10.49;100.00
60918;BME280;46792;38.854;-9.384;2022-12-07T01:03:38;99200.84;;;10.48;100.00
60918;BME280;46792;38.854;-9.384;2022-12-07T01:05:39;99203.53;;;10.48;100.00
60918;BME280;46792;38.854;-9.384;2022-12-07T01:07:40;99198.13;;;10.53;100.00
60918;BME280;46792;38.854;-9.384;2022-12-07T01:09:40;99200.53;;;10.60;100.00
60918;BME280;46792;38.854;-9.384;2022-12-07T01:11:42;99197.28;;;10.63;100.00
60918;BME280;46792;38.854;-9.384;2022-12-07T01:13:43;99196.75;;;10.71;100.00
60918;BME280;46792;38.854;-9.384;2022-12-07T01:15:44;99191.84;;;10.78;100.00
60918;BME280;46792;38.854;-9.384;2022-12-07T01:17:45;99192.94;;;10.88;100.00
60918;BME280;46792;38.854;-9.384;2022-12-07T01:19:45;99193.97;;;10.92;100.00
60918;BME280;46792;38.854;-9.384;2022-12-07T01:21:46;99176.69;;;10.93;100.00
60918;BME280;46792;38.854;-9.384;2022-12-07T01:23:48;99179.91;;;11.05;100.00
60918;BME280;46792;38.854;-9.384;2022-12-07T01:26:11;99180.72;;;11.06;100.00
60918;BME280;46792;38.854;-9.384;2022-12-07T01:28:12;99181.22;;;11.13;100.00
60918;BME280;46792;38.854;-9.384;2022-12-07T01:30:13;99177.72;;;11.07;100.00
60918;BME280;46792;38.854;-9.384;2022-12-07T01:32:13;99179.34;;;11.08;100.00
60918;BME280;46792;38.854;-9.384;2022-12-07T01:34:14;99179.63;;;11.12;100.00
60918;BME280;46792;38.854;-9.384;2022-12-07T01:36:23;99161.00;;;11.05;100.00
60918;BME280;46792;38.854;-9.384;2022-12-07T01:38:24;99158.00;;;11.07;100.00
60918;BME280;46792;38.854;-9.384;2022-12-07T01:40:25;99156.41;;;11.01;100.00
60918;BME280;46792;38.854;-9.384;2022-12-07T01:42:26;99152.06;;;11.05;100.00
60918;BME280;46792;38.854;-9.384;2022-12-07T01:44:29;99148.59;;;10.99;100.00
60918;BME280;46792;38.854;-9.384;2022-12-07T01:46:33;99138.59;;;11.00;100.00
60918;BME280;46792;38.854;-9.384;2022-12-07T01:48:39;99133.47;;;10.98;100.00
60918;BME280;46792;38.854;-9.384;2022-12-07T01:50:43;99140.25;;;10.95;100.00
60918;BME280;46792;38.854;-9.384;2022-12-07T01:52:48;99139.94;;;11.02;100.00
60918;BME280;46792;38.854;-9.384;2022-12-07T01:54:54;99139.69;;;10.99;100.00
60918;BME280;46792;38.854;-9.384;2022-12-07T01:57:16;99134.25;;;11.04;100.00
60918;BME280;46792;38.854;-9.384;2022-12-07T01:59:18;99125.06;;;11.10;100.00
60918;BME280;46792;38.854;-9.384;2022-12-07T02:01:21;99127.69;;;11.20;100.00
60918;BME280;46792;38.854;-9.384;2022-12-07T02:03:43;99116.63;;;11.22;100.00
60918;BME280;46792;38.854;-9.384;2022-12-07T02:06:04;99123.91;;;11.21;100.00
60918;BME280;46792;38.854;-9.384;2022-12-07T02:08:06;99123.59;;;11.28;100.00
60918;BME280;46792;38.854;-9.384;2022-12-07T02:10:20;99112.53;;;11.24;100.00
60918;BME280;46792;38.854;-9.384;2022-12-07T02:12:23;99107.63;;;11.32;100.00
60918;BME280;46792;38.854;-9.384;2022-12-07T02:14:24;99106.28;;;11.34;100.00
60918;BME280;46792;38.854;-9.384;2022-12-07T02:16:34;99103.56;;;11.34;100.00
60918;BME280;46792;38.854;-9.384;2022-12-07T02:21:09;99105.22;;;11.30;100.00
60918;BME280;46792;38.854;-9.384;2022-12-07T02:31:02;99101.97;;;11.33;100.00
60918;BME280;46792;38.854;-9.384;2022-12-07T02:40:34;99072.56;;;11.26;100.00
60918;BME280;46792;38.854;-9.384;2022-12-07T02:43:19;99066.09;;;11.22;100.00
60918;BME280;46792;38.854;-9.384;2022-12-07T02:45:25;99073.66;;;11.20;100.00
60918;BME280;46792;38.854;-9.384;2022-12-07T02:47:27;99063.41;;;11.17;100.00
60918;BME280;46792;38.854;-9.384;2022-12-07T02:49:30;99057.47;;;11.15;100.00
60918;BME280;46792;38.854;-9.384;2022-12-07T02:51:49;99057.53;;;11.10;100.00
60918;BME280;46792;38.854;-9.384;2022-12-07T02:54:17;99060.78;;;11.07;100.00
60918;BME280;46792;38.854;-9.384;2022-12-07T02:56:52;99066.47;;;11.05;100.00
60918;BME280;46792;38.854;-9.384;2022-12-07T02:59:06;99075.13;;;11.02;100.00
60918;BME280;46792;38.854;-9.384;2022-12-07T03:04:26;99062.69;;;11.01;100.00
60918;BME280;46792;38.854;-9.384;2022-12-07T03:06:45;99069.75;;;10.97;100.00
60918;BME280;46792;38.854;-9.384;2022-12-07T03:09:01;99080.84;;;10.95;100.00
60918;BME280;46792;38.854;-9.384;2022-12-07T03:11:13;99079.22;;;10.94;100.00
60918;BME280;46792;38.854;-9.384;2022-12-07T03:17:57;99075.97;;;10.98;100.00
60918;BME280;46792;38.854;-9.384;2022-12-07T03:20:02;99086.47;;;10.99;100.00
60918;BME280;46792;38.854;-9.384;2022-12-07T03:22:07;99085.63;;;11.04;100.00
60918;BME280;46792;38.854;-9.384;2022-12-07T03:24:21;99084.03;;;11.03;100.00
60918;BME280;46792;38.854;-9.384;2022-12-07T03:26:30;99081.06;;;10.99;100.00
60918;BME280;46792;38.854;-9.384;2022-12-07T03:28:35;99072.13;;;11.04;100.00
60918;BME280;46792;38.854;-9.384;2022-12-07T03:30:52;99075.34;;;11.11;100.00
60918;BME280;46792;38.854;-9.384;2022-12-07T03:33:09;99061.22;;;11.19;100.00
60918;BME280;46792;38.854;-9.384;2022-12-07T03:35:22;99059.63;;;11.18;100.00
60918;BME280;46792;38.854;-9.384;2022-12-07T03:40:40;99059.63;;;11.18;100.00
60918;BME280;46792;38.854;-9.384;2022-12-07T03:43:04;99050.69;;;11.23;100.00
60918;BME280;46792;38.854;-9.384;2022-12-07T03:45:05;99052.34;;;11.19;100.00
60918;BME280;46792;38.854;-9.384;2022-12-07T03:49:53;99030.19;;;11.17;100.00
60918;BME280;46792;38.854;-9.384;2022-12-07T03:55:18;99010.75;;;11.15;100.00
60918;BME280;46792;38.854;-9.384;2022-12-07T03:56:59;99015.06;;;11.16;100.00
60918;BME280;46792;38.854;-9.384;2022-12-07T03:59:02;99020.75;;;11.14;100.00
60918;BME280;46792;38.854;-9.384;2022-12-07T04:01:03;99016.94;;;11.15;100.00
60918;BME280;46792;38.854;-9.384;2022-12-07T04:03:03;99019.06;;;11.23;100.00
60918;BME280;46792;38.854;-9.384;2022-12-07T04:05:05;99014.75;;;11.22;100.00
60918;BME280;46792;38.854;-9.384;2022-12-07T04:07:05;99012.59;;;11.19;100.00
60918;BME280;46792;38.854;-9.384;2022-12-07T04:09:06;99001.81;;;11.19;100.00
60918;BME280;46792;38.854;-9.384;2022-12-07T04:11:25;99002.84;;;11.23;100.00
60918;BME280;46792;38.854;-9.384;2022-12-07T04:13:26;98997.69;;;11.27;100.00
60918;BME280;46792;38.854;-9.384;2022-12-07T04:15:26;98996.59;;;11.28;100.00
60918;BME280;46792;38.854;-9.384;2022-12-07T04:17:27;98986.31;;;11.30;100.00
60918;BME280;46792;38.854;-9.384;2022-12-07T04:19:30;98986.00;;;11.37;100.00
60918;BME280;46792;38.854;-9.384;2022-12-07T04:21:31;98982.50;;;11.36;100.00
60918;BME280;46792;38.854;-9.384;2022-12-07T04:23:31;98984.16;;;11.32;100.00
60918;BME280;46792;38.854;-9.384;2022-12-07T04:25:50;98984.94;;;11.33;100.00
60918;BME280;46792;38.854;-9.384;2022-12-07T04:27:51;98981.44;;;11.32;100.00
60918;BME280;46792;38.854;-9.384;2022-12-07T04:29:52;98977.63;;;11.38;100.00
60918;BME280;46792;38.854;-9.384;2022-12-07T04:31:53;98969.44;;;11.44;100.00
60918;BME280;46792;38.854;-9.384;2022-12-07T04:33:53;98970.59;;;11.37;100.00
60918;BME280;46792;38.854;-9.384;2022-12-07T04:36:12;98966.03;;;11.33;100.00
60918;BME280;46792;38.854;-9.384;2022-12-07T04:38:13;98973.91;;;11.29;100.00
60918;BME280;46792;38.854;-9.384;2022-12-07T04:40:14;98972.22;;;11.38;100.00
60918;BME280;46792;38.854;-9.384;2022-12-07T04:42:15;98952.78;;;11.36;100.00
60918;BME280;46792;38.854;-9.384;2022-12-07T04:44:16;98959.72;;;11.43;100.00
60918;BME280;46792;38.854;-9.384;2022-12-07T04:46:35;98963.50;;;11.47;100.00
60918;BME280;46792;38.854;-9.384;2022-12-07T04:48:36;98964.38;;;11.37;100.00
60918;BME280;46792;38.854;-9.384;2022-12-07T04:50:40;98965.19;;;11.37;100.00
60918;BME280;46792;38.854;-9.384;2022-12-07T04:52:40;98949.34;;;11.25;100.00
60918;BME280;46792;38.854;-9.384;2022-12-07T04:54:41;98963.06;;;11.34;100.00
60918;BME280;46792;38.854;-9.384;2022-12-07T04:57:00;98957.66;;;11.34;100.00
60918;BME280;46792;38.854;-9.384;2022-12-07T04:59:01;98961.16;;;11.35;100.00
60918;BME280;46792;38.854;-9.384;2022-12-07T05:01:02;98951.44;;;11.34;100.00
60918;BME280;46792;38.854;-9.384;2022-12-07T05:03:02;98936.03;;;11.34;100.00
60918;BME280;46792;38.854;-9.384;2022-12-07T05:05:03;98943.84;;;11.36;100.00
60918;BME280;46792;38.854;-9.384;2022-12-07T05:07:04;98946.09;;;11.29;100.00
60918;BME280;46792;38.854;-9.384;2022-12-07T05:09:05;98949.78;;;11.38;100.00
60918;BME280;46792;38.854;-9.384;2022-12-07T05:11:06;98949.53;;;11.34;100.00
60918;BME280;46792;38.854;-9.384;2022-12-07T05:13:07;98950.34;;;11.35;100.00
60918;BME280;46792;38.854;-9.384;2022-12-07T05:15:26;98949.47;;;11.39;100.00
60918;BME280;46792;38.854;-9.384;2022-12-07T05:17:26;98950.31;;;11.40;100.00
60918;BME280;46792;38.854;-9.384;2022-12-07T05:19:27;98947.69;;;11.30;100.00
60918;BME280;46792;38.854;-9.384;2022-12-07T05:21:28;98949.59;;;11.29;100.00
60918;BME280;46792;38.854;-9.384;2022-12-07T05:23:28;98956.31;;;11.32;100.00
60918;BME280;46792;38.854;-9.384;2022-12-07T05:25:29;98948.19;;;11.32;100.00
60918;BME280;46792;38.854;-9.384;2022-12-07T05:27:30;98961.16;;;11.35;100.00
60918;BME280;46792;38.854;-9.384;2022-12-07T05:29:30;98956.56;;;11.35;100.00
60918;BME280;46792;38.854;-9.384;2022-12-07T05:31:31;98952.25;;;11.34;100.00
60918;BME280;46792;38.854;-9.384;2022-12-07T05:33:32;98939.25;;;11.36;100.00
60918;BME280;46792;38.854;-9.384;2022-12-07T05:35:32;98937.91;;;11.34;100.00
60918;BME280;46792;38.854;-9.384;2022-12-07T05:37:33;98934.13;;;11.35;100.00
60918;BME280;46792;38.854;-9.384;2022-12-07T05:39:34;98927.69;;;11.31;100.00
60918;BME280;46792;38.854;-9.384;2022-12-07T05:41:35;98922.78;;;11.33;100.00
60918;BME280;46792;38.854;-9.384;2022-12-07T05:43:54;98919.34;;;11.27;100.00
60918;BME280;46792;38.854;-9.384;2022-12-07T05:45:54;98930.44;;;11.25;100.00
60918;BME280;46792;38.854;-9.384;2022-12-07T05:47:55;98924.47;;;11.29;100.00
60918;BME280;46792;38.854;-9.384;2022-12-07T05:49:55;98916.81;;;11.36;100.00
60918;BME280;46792;38.854;-9.384;2022-12-07T05:51:56;98930.81;;;11.43;100.00
60918;BME280;46792;38.854;-9.384;2022-12-07T05:53:57;98921.31;;;11.46;100.00
60918;BME280;46792;38.854;-9.384;2022-12-07T05:58:54;98918.41;;;11.42;100.00
60918;BME280;46792;38.854;-9.384;2022-12-07T06:01:36;98905.75;;;11.37;100.00
60918;BME280;46792;38.854;-9.384;2022-12-07T06:03:40;98900.91;;;11.34;100.00
60918;BME280;46792;38.854;-9.384;2022-12-07T06:05:41;98886.91;;;11.27;100.00
60918;BME280;46792;38.854;-9.384;2022-12-07T06:07:42;98905.03;;;11.26;100.00
60918;BME280;46792;38.854;-9.384;2022-12-07T06:09:43;98898.53;;;11.28;100.00
60918;BME280;46792;38.854;-9.384;2022-12-07T06:11:44;98891.22;;;11.28;100.00
60918;BME280;46792;38.854;-9.384;2022-12-07T06:14:03;98896.44;;;11.19;100.00
60918;BME280;46792;38.854;-9.384;2022-12-07T06:16:04;98890.84;;;11.10;100.00
60918;BME280;46792;38.854;-9.384;2022-12-07T06:18:05;98893.28;;;11.12;100.00
60918;BME280;46792;38.854;-9.384;2022-12-07T06:20:06;98897.31;;;11.09;100.00
60918;BME280;46792;38.854;-9.384;2022-12-07T06:22:08;98889.50;;;11.13;100.00
60918;BME280;46792;38.854;-9.384;2022-12-07T06:24:13;98887.38;;;11.05;100.00
60918;BME280;46792;38.854;-9.384;2022-12-07T06:26:14;98886.53;;;11.09;100.00
60918;BME280;46792;38.854;-9.384;2022-12-07T06:28:33;98882.47;;;11.12;100.00
60918;BME280;46792;38.854;-9.384;2022-12-07T06:30:34;98891.94;;;11.09;100.00
60918;BME280;46792;38.854;-9.384;2022-12-07T06:32:36;98887.81;;;11.17;100.00
60918;BME280;46792;38.854;-9.384;2022-12-07T06:34:37;98887.34;;;11.10;100.00
60918;BME280;46792;38.854;-9.384;2022-12-07T06:36:57;98890.13;;;11.00;100.00
60918;BME280;46792;38.854;-9.384;2022-12-07T06:39:17;98888.44;;;11.09;100.00
60918;BME280;46792;38.854;-9.384;2022-12-07T06:41:18;98885.22;;;11.07;100.00
60918;BME280;46792;38.854;-9.384;2022-12-07T06:43:19;98882.72;;;11.10;100.00
60918;BME280;46792;38.854;-9.384;2022-12-07T06:45:19;98880.59;;;11.07;100.00
60918;BME280;46792;38.854;-9.384;2022-12-07T06:47:20;98885.50;;;11.05;100.00
60918;BME280;46792;38.854;-9.384;2022-12-07T06:51:32;98888.25;;;10.95;100.00
60918;BME280;46792;38.854;-9.384;2022-12-07T06:53:51;98874.00;;;10.89;100.00
60918;BME280;46792;38.854;-9.384;2022-12-07T06:55:52;98885.03;;;10.93;100.00
60918;BME280;46792;38.854;-9.384;2022-12-07T06:57:53;98888.25;;;10.95;100.00
60918;BME280;46792;38.854;-9.384;2022-12-07T06:59:53;98885.91;;;10.83;100.00
60918;BME280;46792;38.854;-9.384;2022-12-07T07:02:12;98889.31;;;10.99;100.00
60918;BME280;46792;38.854;-9.384;2022-12-07T07:04:13;98882.00;;;11.00;100.00
60918;BME280;46792;38.854;-9.384;2022-12-07T07:06:32;98883.19;;;10.88;100.00
60918;BME280;46792;38.854;-9.384;2022-12-07T07:08:34;98883.75;;;10.85;100.00
60918;BME280;46792;38.854;-9.384;2022-12-07T07:10:35;98883.75;;;10.85;100.00
60918;BME280;46792;38.854;-9.384;2022-12-07T07:12:55;98874.31;;;10.88;100.00
60918;BME280;46792;38.854;-9.384;2022-12-07T07:14:55;98872.94;;;10.85;100.00
60918;BME280;46792;38.854;-9.384;2022-12-07T07:16:56;98874.00;;;10.89;100.00
60918;BME280;46792;38.854;-9.384;2022-12-07T07:18:57;98865.56;;;10.96;100.00
60918;BME280;46792;38.854;-9.384;2022-12-07T07:21:16;98867.41;;;11.01;100.00
60918;BME280;46792;38.854;-9.384;2022-12-07T07:23:17;98863.59;;;11.07;100.00
60918;BME280;46792;38.854;-9.384;2022-12-07T07:25:18;98868.00;;;10.98;100.00
60918;BME280;46792;38.854;-9.384;2022-12-07T07:27:19;98870.66;;;11.03;100.00
60918;BME280;46792;38.854;-9.384;2022-12-07T07:29:41;98878.28;;;10.95;100.00
60918;BME280;46792;38.854;-9.384;2022-12-07T07:31:41;98865.16;;;11.13;100.00
60918;BME280;46792;38.854;-9.384;2022-12-07T07:33:42;98861.69;;;11.07;100.00
60918;BME280;46792;38.854;-9.384;2022-12-07T07:35:43;98859.00;;;11.07;100.00
60918;BME280;46792;38.854;-9.384;2022-12-07T07:37:43;98855.25;;;11.03;100.00
60918;BME280;46792;38.854;-9.384;2022-12-07T07:39:44;98850.63;;;11.09;100.00
60918;BME280;46792;38.854;-9.384;2022-12-07T07:41:45;98848.78;;;11.04;100.00
60918;BME280;46792;38.854;-9.384;2022-12-07T07:43:48;98852.28;;;11.05;100.00
60918;BME280;46792;38.854;-9.384;2022-12-07T07:45:49;98849.56;;;11.05;100.00
60918;BME280;46792;38.854;-9.384;2022-12-07T07:47:50;98854.50;;;10.98;100.00
60918;BME280;46792;38.854;-9.384;2022-12-07T07:49:51;98852.97;;;10.86;100.00
60918;BME280;46792;38.854;-9.384;2022-12-07T07:51:51;98849.66;;;10.94;100.00
60918;BME280;46792;38.854;-9.384;2022-12-07T07:53:52;98850.22;;;10.91;100.00
60918;BME280;46792;38.854;-9.384;2022-12-07T07:55:53;98851.59;;;10.89;100.00
60918;BME280;46792;38.854;-9.384;2022-12-07T07:57:54;98847.34;;;10.77;100.00
60918;BME280;46792;38.854;-9.384;2022-12-07T07:59:55;98836.84;;;10.76;100.00
60918;BME280;46792;38.854;-9.384;2022-12-07T08:01:55;98838.59;;;10.61;100.00
60918;BME280;46792;38.854;-9.384;2022-12-07T08:03:56;98845.88;;;10.61;100.00
60918;BME280;46792;38.854;-9.384;2022-12-07T08:05:57;98840.47;;;10.61;100.00
60918;BME280;46792;38.854;-9.384;2022-12-07T08:07:57;98847.22;;;10.63;100.00
60918;BME280;46792;38.854;-9.384;2022-12-07T08:09:58;98859.88;;;10.63;100.00
60918;BME280;46792;38.854;-9.384;2022-12-07T08:11:59;98838.63;;;10.56;100.00
60918;BME280;46792;38.854;-9.384;2022-12-07T08:14:00;98834.31;;;10.55;100.00
60918;BME280;46792;38.854;-9.384;2022-12-07T08:16:09;98831.28;;;10.62;100.00
60918;BME280;46792;38.854;-9.384;2022-12-07T08:18:10;98828.56;;;10.67;100.00
60918;BME280;46792;38.854;-9.384;2022-12-07T08:20:11;98839.16;;;10.58;100.00
60918;BME280;46792;38.854;-9.384;2022-12-07T08:22:12;98845.94;;;10.56;100.00
60918;BME280;46792;38.854;-9.384;2022-12-07T08:24:33;98844.25;;;10.60;100.00
60918;BME280;46792;38.854;-9.384;2022-12-07T08:26:34;98837.00;;;10.55;100.00
60918;BME280;46792;38.854;-9.384;2022-12-07T08:28:36;98840.78;;;10.54;100.00
60918;BME280;46792;38.854;-9.384;2022-12-07T08:30:36;98845.16;;;10.50;100.00
60918;BME280;46792;38.854;-9.384;2022-12-07T08:32:37;98848.63;;;10.56;100.00
60918;BME280;46792;38.854;-9.384;2022-12-07T08:34:38;98843.47;;;10.59;100.00
60918;BME280;46792;38.854;-9.384;2022-12-07T08:36:38;98848.63;;;10.56;100.00
60918;BME280;46792;38.854;-9.384;2022-12-07T08:38:51;98838.66;;;10.51;100.00
60918;BME280;46792;38.854;-9.384;2022-12-07T08:40:58;98855.63;;;10.57;100.00
60918;BME280;46792;38.854;-9.384;2022-12-07T08:42:59;98854.81;;;10.56;100.00
60918;BME280;46792;38.854;-9.384;2022-12-07T08:45:00;98850.19;;;10.62;100.00
60918;BME280;46792;38.854;-9.384;2022-12-07T08:47:02;98847.78;;;10.60;100.00
60918;BME280;46792;38.854;-9.384;2022-12-07T08:49:13;98853.41;;;10.64;100.00
60918;BME280;46792;38.854;-9.384;2022-12-07T08:51:17;98856.84;;;10.75;100.00
60918;BME280;46792;38.854;-9.384;2022-12-07T08:53:17;98844.72;;;10.72;100.00
60918;BME280;46792;38.854;-9.384;2022-12-07T08:55:18;98834.72;;;10.73;100.00
60918;BME280;46792;38.854;-9.384;2022-12-07T08:57:19;98843.25;;;10.85;100.00
60918;BME280;46792;38.854;-9.384;2022-12-07T08:59:20;98845.63;;;10.92;100.00
60918;BME280;46792;38.854;-9.384;2022-12-07T09:01:21;98847.50;;;10.97;100.00
60918;BME280;46792;38.854;-9.384;2022-12-07T09:03:22;98845.56;;;11.02;100.00
60918;BME280;46792;38.854;-9.384;2022-12-07T09:05:22;98845.78;;;11.06;100.00
60918;BME280;46792;38.854;-9.384;2022-12-07T09:07:24;98846.91;;;11.00;100.00
60918;BME280;46792;38.854;-9.384;2022-12-07T09:09:25;98845.78;;;11.06;100.00
60918;BME280;46792;38.854;-9.384;2022-12-07T09:11:26;98851.41;;;11.09;100.00
60918;BME280;46792;38.854;-9.384;2022-12-07T09:13:45;98838.66;;;11.15;100.00
60918;BME280;46792;38.854;-9.384;2022-12-07T09:16:04;98838.72;;;11.10;100.00
60918;BME280;46792;38.854;-9.384;2022-12-07T09:18:05;98841.94;;;11.12;100.00
60918;BME280;46792;38.854;-9.384;2022-12-07T09:20:06;98828.09;;;11.19;100.00
60918;BME280;46792;38.854;-9.384;2022-12-07T09:22:07;98819.75;;;11.15;100.00
60918;BME280;46792;38.854;-9.384;2022-12-07T09:24:08;98815.47;;;11.14;100.00
60918;BME280;46792;38.854;-9.384;2022-12-07T09:26:10;98823.56;;;11.14;100.00
60918;BME280;46792;38.854;-9.384;2022-12-07T09:28:11;98813.84;;;11.13;100.00
60918;BME280;46792;38.854;-9.384;2022-12-07T09:30:12;98822.28;;;11.06;100.00
60918;BME280;46792;38.854;-9.384;2022-12-07T09:32:13;98835.00;;;11.01;100.00
60918;BME280;46792;38.854;-9.384;2022-12-07T09:34:14;98825.56;;;11.03;100.00
60918;BME280;46792;38.854;-9.384;2022-12-07T09:36:14;98821.25;;;11.02;100.00
60918;BME280;46792;38.854;-9.384;2022-12-07T09:38:15;98821.81;;;10.99;100.00
60918;BME280;46792;38.854;-9.384;2022-12-07T09:40:17;98822.56;;;11.05;100.00
60918;BME280;46792;38.854;-9.384;2022-12-07T09:42:33;98819.00;;;11.09;100.00
60918;BME280;46792;38.854;-9.384;2022-12-07T09:44:35;98826.75;;;11.16;100.00
60918;BME280;46792;38.854;-9.384;2022-12-07T09:46:39;98817.81;;;11.21;100.00
60918;BME280;46792;38.854;-9.384;2022-12-07T09:48:42;98815.69;;;11.18;100.00
60918;BME280;46792;38.854;-9.384;2022-12-07T09:50:47;98821.94;;;11.13;100.00
60918;BME280;46792;38.854;-9.384;2022-12-07T09:52:49;98811.16;;;11.13;100.00
60918;BME280;46792;38.854;-9.384;2022-12-07T09:54:50;98818.38;;;11.18;100.00
60918;BME280;46792;38.854;-9.384;2022-12-07T09:56:51;98811.91;;;11.19;100.00
60918;BME280;46792;38.854;-9.384;2022-12-07T09:58:59;98817.13;;;11.10;100.00
60918;BME280;46792;38.854;-9.384;2022-12-07T10:01:11;98814.88;;;11.17;100.00
60918;BME280;46792;38.854;-9.384;2022-12-07T10:03:12;98811.63;;;11.15;100.00
60918;BME280;46792;38.854;-9.384;2022-12-07T10:05:16;98811.56;;;11.25;100.00
60918;BME280;46792;38.854;-9.384;2022-12-07T10:07:18;98812.34;;;11.26;100.00
60918;BME280;46792;38.854;-9.384;2022-12-07T10:09:21;98806.03;;;11.36;100.00
60918;BME280;46792;38.854;-9.384;2022-12-07T10:11:22;98811.91;;;11.43;100.00
60918;BME280;46792;38.854;-9.384;2022-12-07T10:13:38;98818.75;;;11.35;100.00
60918;BME280;46792;38.854;-9.384;2022-12-07T10:15:59;98817.66;;;11.36;100.00
60918;BME280;46792;38.854;-9.384;2022-12-07T10:18:00;98813.91;;;11.32;100.00
60918;BME280;46792;38.854;-9.384;2022-12-07T10:20:26;98815.31;;;11.30;100.00
60918;BME280;46792;38.854;-9.384;2022-12-07T10:22:27;98801.78;;;11.30;100.00
60918;BME280;46792;38.854;-9.384;2022-12-07T10:24:27;98819.94;;;11.48;100.00
60918;BME280;46792;38.854;-9.384;2022-12-07T10:31:30;98808.16;;;11.39;100.00
60918;BME280;46792;38.854;-9.384;2022-12-07T10:33:48;98807.28;;;11.44;100.00
60918;BME280;46792;38.854;-9.384;2022-12-07T10:35:50;98801.53;;;11.50;100.00
60918;BME280;46792;38.854;-9.384;2022-12-07T10:37:52;98801.44;;;11.61;100.00
60918;BME280;46792;38.854;-9.384;2022-12-07T10:39:55;98796.97;;;11.51;100.00
60918;BME280;46792;38.854;-9.384;2022-12-07T10:41:58;98788.53;;;11.52;100.00
60918;BME280;46792;38.854;-9.384;2022-12-07T10:43:59;98795.56;;;11.53;100.00
60918;BME280;46792;38.854;-9.384;2022-12-07T10:48:23;98795.03;;;11.51;100.00
60918;BME280;46792;38.854;-9.384;2022-12-07T10:57:36;98800.09;;;11.58;100.00
60918;BME280;46792;38.854;-9.384;2022-12-07T11:04:37;98781.91;;;11.64;100.00
60918;BME280;46792;38.854;-9.384;2022-12-07T11:07:05;98783.47;;;11.70;100.00
60918;BME280;46792;38.854;-9.384;2022-12-07T11:14:40;98765.94;;;11.86;100.00
60918;BME280;46792;38.854;-9.384;2022-12-07T11:16:57;98773.19;;;11.91;100.00
60918;BME280;46792;38.854;-9.384;2022-12-07T11:22:09;98762.28;;;12.01;100.00
60918;BME280;46792;38.854;-9.384;2022-12-07T11:24:18;98750.84;;;12.05;100.00
60918;BME280;46792;38.854;-9.384;2022-12-07T11:37:44;98722.09;;;12.09;100.00
60918;BME280;46792;38.854;-9.384;2022-12-07T11:42:20;98723.13;;;12.13;100.00
60918;BME280;46792;38.854;-9.384;2022-12-07T11:44:40;98711.00;;;12.10;100.00
60918;BME280;46792;38.854;-9.384;2022-12-07T11:46:53;98708.97;;;12.02;100.00
60918;BME280;46792;38.854;-9.384;2022-12-07T11:49:09;98704.38;;;12.02;100.00
60918;BME280;46792;38.854;-9.384;2022-12-07T11:51:13;98697.94;;;11.98;100.00
60918;BME280;46792;38.854;-9.384;2022-12-07T11:53:20;98687.63;;;12.00;100.00
60918;BME280;46792;38.854;-9.384;2022-12-07T11:55:39;98696.09;;;11.94;100.00
60918;BME280;46792;38.854;-9.384;2022-12-07T11:57:44;98690.66;;;11.94;100.00
60918;BME280;46792;38.854;-9.384;2022-12-07T11:59:47;98681.22;;;11.91;100.00
60918;BME280;46792;38.854;-9.384;2022-12-07T12:06:09;98667.56;;;11.82;100.00
60918;BME280;46792;38.854;-9.384;2022-12-07T12:10:24;98655.66;;;11.83;100.00
60918;BME280;46792;38.854;-9.384;2022-12-07T12:13:00;98655.66;;;11.83;100.00
60918;BME280;46792;38.854;-9.384;2022-12-07T12:20:40;98649.78;;;11.95;100.00